Time;durP1;ratioP1;P1;durP2;ratioP2;P2;SDS_P1;SDS_P2;PMS_P1;PMS_P2;Temp;Humidity;BMP_temperature;BMP_pressure;BME280_temperature;BME280_humidity;BME280_pressure;Samples;Min_cycle;Max_cycle;Signal;HPM_P1;HPM_P2
2023/06/15 00:00:12;;;;;;;0.35;0.35;;;15.40;95.80;;;;;;5066705;28;20036;-77
2023/06/15 00:02:39;;;;;;;0.40;0.40;;;15.30;95.90;;;;;;5065656;28;20436;-77
2023/06/15 00:05:07;;;;;;;0.30;0.30;;;15.30;95.90;;;;;;5067182;28;20051;-77
2023/06/15 00:07:33;;;;;;;0.20;0.20;;;15.30;95.80;;;;;;5070666;28;20052;-77
2023/06/15 00:09:58;;;;;;;0.30;0.30;;;15.30;96.00;;;;;;5070644;28;20520;-77
2023/06/15 00:12:24;;;;;;;0.30;0.30;;;15.20;96.00;;;;;;5052136;28;20076;-77
2023/06/15 00:14:49;;;;;;;0.40;0.40;;;15.20;96.20;;;;;;5062555;28;20049;-78
2023/06/15 00:17:15;;;;;;;0.43;0.43;;;15.20;96.30;;;;;;5066164;28;20452;-77
2023/06/15 00:19:41;;;;;;;0.32;0.32;;;15.20;96.60;;;;;;5070086;28;20121;-78
2023/06/15 00:22:09;;;;;;;0.15;0.15;;;15.10;96.50;;;;;;5067079;28;20076;-78
2023/06/15 00:24:35;;;;;;;0.50;0.50;;;15.10;96.60;;;;;;5069313;28;20052;-77
2023/06/15 00:27:01;;;;;;;0.57;0.57;;;15.10;96.60;;;;;;5062549;28;20110;-77
2023/06/15 00:29:27;;;;;;;0.38;0.38;;;15.10;96.70;;;;;;5069925;28;20127;-77
2023/06/15 00:31:52;;;;;;;0.50;0.50;;;15.10;96.80;;;;;;5050441;28;20071;-77
2023/06/15 00:34:20;;;;;;;0.25;0.25;;;15.10;96.80;;;;;;5065628;28;20134;-77
2023/06/15 00:36:45;;;;;;;0.47;0.47;;;15.00;96.90;;;;;;5063011;28;20494;-79
2023/06/15 00:39:11;;;;;;;0.32;0.32;;;15.00;97.00;;;;;;5066059;28;20114;-77
2023/06/15 00:41:41;;;;;;;0.40;0.40;;;15.00;97.00;;;;;;5060883;28;20048;-77
2023/06/15 00:44:07;;;;;;;0.35;0.35;;;14.90;97.10;;;;;;5069721;28;20171;-78
2023/06/15 00:46:33;;;;;;;0.40;0.40;;;14.90;97.20;;;;;;5068704;28;20246;-77
2023/06/15 00:48:59;;;;;;;0.30;0.30;;;14.90;97.30;;;;;;5069322;28;20147;-77
2023/06/15 00:51:25;;;;;;;0.70;0.50;;;14.90;97.40;;;;;;5066062;28;20105;-77
2023/06/15 00:53:51;;;;;;;0.30;0.30;;;14.90;97.50;;;;;;5070354;28;20059;-77
2023/06/15 00:56:17;;;;;;;0.30;0.30;;;14.80;97.40;;;;;;5060455;28;20045;-77
2023/06/15 00:58:43;;;;;;;0.30;0.30;;;14.80;97.60;;;;;;5070153;28;20044;-77
2023/06/15 01:01:09;;;;;;;0.77;0.77;;;14.70;97.70;;;;;;5070443;28;20037;-77
2023/06/15 01:03:35;;;;;;;2.28;0.40;;;14.70;97.70;;;;;;5058351;28;20401;-77
2023/06/15 01:06:11;;;;;;;0.35;0.35;;;14.70;97.80;;;;;;5067180;28;20068;-77
2023/06/15 01:08:38;;;;;;;0.38;0.38;;;14.60;97.90;;;;;;5067449;28;20068;-77
2023/06/15 01:11:04;;;;;;;0.30;0.30;;;14.60;98.10;;;;;;5068407;28;20051;-77
2023/06/15 01:13:30;;;;;;;0.63;0.63;;;14.60;98.20;;;;;;5064418;28;20041;-77
2023/06/15 01:16:00;;;;;;;0.77;0.77;;;14.50;98.40;;;;;;5063397;28;20454;-77
2023/06/15 01:18:29;;;;;;;0.65;0.45;;;14.50;98.40;;;;;;5064869;28;20583;-77
2023/06/15 01:20:56;;;;;;;0.93;0.93;;;14.50;98.50;;;;;;5063454;28;20422;-77
2023/06/15 01:23:43;;;;;;;0.52;0.50;;;14.40;98.40;;;;;;5064872;28;20090;-77
2023/06/15 01:26:14;;;;;;;0.32;0.32;;;14.40;98.70;;;;;;5045309;28;20051;-77
2023/06/15 01:28:45;;;;;;;0.30;0.30;;;14.40;99.00;;;;;;5061545;28;20566;-77
2023/06/15 01:31:12;;;;;;;0.30;0.30;;;14.30;99.10;;;;;;5062416;28;20525;-77
2023/06/15 01:33:49;;;;;;;0.30;0.30;;;14.30;99.30;;;;;;5061094;28;20051;-79
2023/06/15 01:36:16;;;;;;;0.40;0.40;;;14.30;99.40;;;;;;5067430;28;20299;-77
2023/06/15 01:38:43;;;;;;;0.30;0.30;;;14.20;99.30;;;;;;5068821;28;20477;-77
2023/06/15 01:41:11;;;;;;;0.35;0.30;;;14.20;99.70;;;;;;5067979;28;20119;-79
2023/06/15 01:43:38;;;;;;;0.30;0.30;;;14.20;99.80;;;;;;5069520;28;20048;-77
2023/06/15 01:46:05;;;;;;;0.30;0.30;;;14.10;99.80;;;;;;5068440;28;20287;-77
2023/06/15 01:48:31;;;;;;;0.40;0.40;;;14.10;99.90;;;;;;5067069;28;20049;-77
2023/06/15 01:50:57;;;;;;;0.45;0.30;;;14.10;99.90;;;;;;5064435;28;20044;-76
2023/06/15 01:53:23;;;;;;;0.50;0.50;;;14.00;99.90;;;;;;5061786;28;20048;-77
2023/06/15 01:55:50;;;;;;;0.52;0.50;;;14.10;99.90;;;;;;5060456;28;20453;-77
2023/06/15 01:58:16;;;;;;;0.30;0.30;;;14.00;99.90;;;;;;5068615;28;20045;-77
2023/06/15 02:00:43;;;;;;;0.60;0.60;;;14.00;99.90;;;;;;5063283;28;20387;-77
2023/06/15 02:03:09;;;;;;;0.20;0.20;;;14.00;99.90;;;;;;5063095;28;20057;-77
2023/06/15 02:05:39;;;;;;;0.30;0.30;;;13.90;99.90;;;;;;5064737;28;20407;-77
2023/06/15 02:08:09;;;;;;;0.30;0.30;;;14.00;99.90;;;;;;5066898;28;20120;-77
2023/06/15 02:10:35;;;;;;;0.40;0.40;;;13.90;99.90;;;;;;5061135;28;20524;-77
2023/06/15 02:13:01;;;;;;;0.30;0.30;;;13.90;99.90;;;;;;5065804;28;20061;-76
2023/06/15 02:15:28;;;;;;;0.30;0.30;;;13.90;99.90;;;;;;5056708;28;20047;-76
2023/06/15 02:17:58;;;;;;;0.40;0.40;;;13.80;99.90;;;;;;5064403;28;20045;-76
2023/06/15 02:20:24;;;;;;;0.35;0.35;;;13.80;99.90;;;;;;5063867;28;20056;-77
2023/06/15 02:22:52;;;;;;;0.38;0.38;;;13.70;99.90;;;;;;5062433;28;20045;-77
2023/06/15 02:25:18;;;;;;;0.20;0.20;;;13.70;99.90;;;;;;5067334;28;20052;-77
2023/06/15 02:27:44;;;;;;;0.98;0.98;;;13.70;99.90;;;;;;5068297;28;20140;-77
2023/06/15 02:30:11;;;;;;;0.30;0.30;;;13.60;99.90;;;;;;5060390;28;20725;-77
2023/06/15 02:32:39;;;;;;;0.35;0.35;;;13.60;99.90;;;;;;5066790;28;20052;-77
2023/06/15 02:35:10;;;;;;;0.57;0.57;;;13.60;99.90;;;;;;5065218;28;20090;-77
2023/06/15 02:37:36;;;;;;;0.30;0.30;;;13.50;99.90;;;;;;5064324;28;20405;-77
2023/06/15 02:40:06;;;;;;;0.43;0.43;;;13.50;99.90;;;;;;5066548;28;20068;-77
2023/06/15 02:42:32;;;;;;;0.80;0.80;;;13.50;99.90;;;;;;5066231;28;20052;-76
2023/06/15 02:44:58;;;;;;;0.20;0.20;;;13.50;99.90;;;;;;5066322;28;20091;-77
2023/06/15 02:47:24;;;;;;;0.30;0.30;;;13.40;99.90;;;;;;5065226;28;20496;-77
2023/06/15 02:49:50;;;;;;;0.40;0.40;;;13.40;99.90;;;;;;5067087;28;20048;-77
2023/06/15 02:52:17;;;;;;;0.30;0.30;;;13.40;99.90;;;;;;5062301;28;20053;-77
2023/06/15 02:54:43;;;;;;;0.40;0.40;;;13.30;99.90;;;;;;5062008;28;20052;-77
2023/06/15 02:57:09;;;;;;;0.65;0.65;;;13.30;99.90;;;;;;5063550;28;20389;-77
2023/06/15 02:59:35;;;;;;;0.22;0.22;;;13.30;99.90;;;;;;5068968;28;20053;-77
2023/06/15 03:02:04;;;;;;;0.90;0.75;;;13.30;99.90;;;;;;5059001;28;20044;-77
2023/06/15 03:04:37;;;;;;;0.40;0.40;;;13.20;99.90;;;;;;5064305;28;20082;-77
2023/06/15 03:07:03;;;;;;;0.40;0.40;;;13.20;99.90;;;;;;5050296;28;20046;-76
2023/06/15 03:09:30;;;;;;;0.82;0.82;;;13.10;99.90;;;;;;5055088;28;20048;-76
2023/06/15 03:11:56;;;;;;;0.55;0.50;;;13.10;99.90;;;;;;5062966;28;20051;-76
2023/06/15 03:14:21;;;;;;;0.30;0.30;;;13.10;99.90;;;;;;5066919;28;20056;-76
2023/06/15 03:16:47;;;;;;;3.40;0.52;;;13.10;99.90;;;;;;5058626;28;20378;-76
2023/06/15 03:19:17;;;;;;;0.40;0.40;;;13.10;99.90;;;;;;5062204;28;20049;-76
2023/06/15 03:21:44;;;;;;;0.55;0.55;;;13.00;99.90;;;;;;5068657;28;20053;-76
2023/06/15 03:24:10;;;;;;;1.02;1.02;;;13.00;99.90;;;;;;5070516;28;20044;-76
2023/06/15 03:26:39;;;;;;;0.75;0.75;;;13.00;99.90;;;;;;5070934;28;20070;-76
2023/06/15 03:29:05;;;;;;;0.40;0.40;;;13.00;99.90;;;;;;5063073;28;20058;-76
2023/06/15 03:31:33;;;;;;;0.38;0.38;;;13.00;99.90;;;;;;5070503;28;20044;-76
2023/06/15 03:34:02;;;;;;;0.77;0.77;;;13.00;99.90;;;;;;5059075;28;20561;-76
2023/06/15 03:36:31;;;;;;;0.82;0.82;;;13.00;99.90;;;;;;5071375;28;20048;-76
2023/06/15 03:38:58;;;;;;;0.40;0.40;;;13.00;99.90;;;;;;5068239;28;20065;-76
2023/06/15 03:41:27;;;;;;;0.75;0.63;;;13.00;99.90;;;;;;5068253;28;20512;-76
2023/06/15 03:43:53;;;;;;;0.20;0.20;;;13.00;99.90;;;;;;5070153;28;20084;-76
2023/06/15 03:46:19;;;;;;;0.50;0.50;;;13.00;99.90;;;;;;5065126;28;20079;-76
2023/06/15 03:48:45;;;;;;;0.32;0.32;;;13.00;99.90;;;;;;5067954;28;20068;-77
2023/06/15 03:51:11;;;;;;;0.50;0.50;;;13.10;99.90;;;;;;5066830;28;20052;-76
2023/06/15 03:53:41;;;;;;;0.30;0.30;;;13.10;99.90;;;;;;5070165;28;20079;-76
2023/06/15 03:56:06;;;;;;;0.63;0.63;;;13.10;99.90;;;;;;5070388;28;20837;-77
2023/06/15 03:58:32;;;;;;;0.45;0.45;;;13.20;99.90;;;;;;5070843;28;20068;-76
2023/06/15 04:00:58;;;;;;;0.60;0.60;;;13.20;99.90;;;;;;5070542;28;20045;-76
2023/06/15 04:03:24;;;;;;;0.32;0.32;;;13.30;99.90;;;;;;5069206;28;20064;-78
2023/06/15 04:05:50;;;;;;;0.30;0.30;;;13.30;99.90;;;;;;5065901;28;20049;-76
2023/06/15 04:08:15;;;;;;;0.40;0.40;;;13.40;99.90;;;;;;5067083;28;20560;-77
2023/06/15 04:10:41;;;;;;;0.73;0.73;;;13.40;99.90;;;;;;5067365;28;20101;-77
2023/06/15 04:13:07;;;;;;;0.30;0.30;;;13.50;99.90;;;;;;5068014;28;20493;-77
2023/06/15 04:15:32;;;;;;;0.40;0.40;;;13.50;99.90;;;;;;5068242;28;20049;-77
2023/06/15 04:18:00;;;;;;;0.40;0.40;;;13.60;99.90;;;;;;5065887;28;20144;-77
2023/06/15 04:20:28;;;;;;;0.20;0.20;;;13.60;99.90;;;;;;5051837;28;20056;-77
2023/06/15 04:22:58;;;;;;;0.30;0.30;;;13.70;99.90;;;;;;5062408;28;20048;-77
2023/06/15 04:25:27;;;;;;;0.50;0.50;;;13.80;99.90;;;;;;5057329;28;20086;-78
2023/06/15 04:27:53;;;;;;;0.40;0.40;;;13.90;99.90;;;;;;5062400;28;20152;-78
2023/06/15 04:30:24;;;;;;;0.65;0.65;;;13.90;99.90;;;;;;5067106;28;20106;-77
2023/06/15 04:32:57;;;;;;;0.40;0.40;;;14.00;99.90;;;;;;5061601;28;20048;-78
2023/06/15 04:35:24;;;;;;;0.50;0.50;;;14.00;99.90;;;;;;5065723;28;20537;-77
2023/06/15 04:37:52;;;;;;;0.50;0.50;;;14.10;99.90;;;;;;5054420;28;20064;-77
2023/06/15 04:40:20;;;;;;;0.45;0.45;;;14.10;99.90;;;;;;5064515;28;20048;-79
2023/06/15 04:42:46;;;;;;;1.08;0.73;;;14.20;99.90;;;;;;5066463;28;20059;-78
2023/06/15 04:45:12;;;;;;;0.40;0.40;;;14.20;99.90;;;;;;5064021;28;20049;-78
2023/06/15 04:47:38;;;;;;;0.28;0.28;;;14.30;99.90;;;;;;5067815;28;20397;-79
2023/06/15 04:50:04;;;;;;;0.60;0.57;;;14.30;99.90;;;;;;5060215;28;20476;-79
2023/06/15 04:52:30;;;;;;;0.40;0.40;;;14.30;99.90;;;;;;5067160;28;20485;-78
2023/06/15 04:54:56;;;;;;;0.50;0.50;;;14.30;99.90;;;;;;5053661;28;20055;-78
2023/06/15 04:57:21;;;;;;;0.45;0.45;;;14.40;99.90;;;;;;5061600;28;20037;-78
2023/06/15 04:59:47;;;;;;;0.30;0.30;;;14.50;99.90;;;;;;5059957;28;20787;-79
2023/06/15 05:02:12;;;;;;;0.30;0.30;;;14.50;99.90;;;;;;5063444;28;20445;-78
2023/06/15 05:04:38;;;;;;;0.20;0.20;;;14.60;99.90;;;;;;5062329;28;20853;-79
2023/06/15 05:07:05;;;;;;;0.30;0.30;;;14.60;99.90;;;;;;5060380;28;20094;-78
2023/06/15 05:09:31;;;;;;;0.40;0.40;;;14.70;99.90;;;;;;5069170;28;20049;-78
2023/06/15 05:11:57;;;;;;;0.30;0.30;;;14.70;99.90;;;;;;5066803;28;20060;-78
2023/06/15 05:14:22;;;;;;;0.40;0.40;;;14.80;99.90;;;;;;5066845;28;20555;-80
2023/06/15 05:16:48;;;;;;;0.38;0.38;;;14.90;99.90;;;;;;5067571;28;20048;-78
2023/06/15 05:19:14;;;;;;;1.08;0.40;;;14.90;99.90;;;;;;5062577;28;20041;-78
2023/06/15 05:21:40;;;;;;;0.60;0.60;;;15.00;99.90;;;;;;5063628;28;20055;-77
2023/06/15 05:24:07;;;;;;;0.47;0.45;;;15.20;99.90;;;;;;5068882;28;20607;-79
2023/06/15 05:26:32;;;;;;;1.17;1.17;;;15.30;99.90;;;;;;5051602;28;20052;-79
2023/06/15 05:28:58;;;;;;;0.93;0.93;;;15.40;99.90;;;;;;5064310;28;20101;-79
2023/06/15 05:31:24;;;;;;;0.45;0.45;;;15.50;99.90;;;;;;5068211;28;20048;-79
2023/06/15 05:33:49;;;;;;;2.80;1.17;;;15.60;99.90;;;;;;5064031;28;20452;-78
2023/06/15 05:36:15;;;;;;;1.33;1.23;;;15.70;99.90;;;;;;5065928;28;20055;-78
2023/06/15 05:38:40;;;;;;;1.42;1.27;;;15.80;99.90;;;;;;5063985;28;20131;-78
2023/06/15 05:41:06;;;;;;;4.55;1.42;;;16.00;99.90;;;;;;5062346;28;20123;-78
2023/06/15 05:43:32;;;;;;;0.45;0.45;;;16.00;99.90;;;;;;5064911;28;20056;-78
2023/06/15 05:45:57;;;;;;;1.33;1.23;;;16.20;99.90;;;;;;5060996;28;20909;-78
2023/06/15 05:48:23;;;;;;;0.45;0.43;;;16.30;99.90;;;;;;5061673;28;20041;-78
2023/06/15 05:50:49;;;;;;;0.80;0.80;;;16.50;99.90;;;;;;5063728;28;20048;-78
2023/06/15 05:53:15;;;;;;;0.82;0.82;;;16.60;99.90;;;;;;5061061;28;20040;-78
2023/06/15 05:55:40;;;;;;;0.85;0.85;;;16.80;99.90;;;;;;5065045;28;20044;-79
2023/06/15 05:58:06;;;;;;;0.50;0.50;;;16.90;99.00;;;;;;5056996;28;20047;-79
2023/06/15 06:00:32;;;;;;;1.25;1.02;;;17.00;99.10;;;;;;5065886;28;20040;-78
2023/06/15 06:02:58;;;;;;;0.93;0.93;;;17.10;97.40;;;;;;5062932;28;20044;-79
2023/06/15 06:05:24;;;;;;;0.77;0.60;;;17.30;96.90;;;;;;5059220;28;20111;-78
2023/06/15 06:07:50;;;;;;;3.25;1.75;;;17.40;97.20;;;;;;5050053;28;20485;-78
2023/06/15 06:10:19;;;;;;;1.13;1.13;;;17.50;96.70;;;;;;5055335;28;20058;-79
2023/06/15 06:12:45;;;;;;;2.20;1.63;;;17.60;96.10;;;;;;5058738;28;20398;-80
2023/06/15 06:15:11;;;;;;;0.68;0.68;;;17.70;96.40;;;;;;5063476;28;20044;-79
2023/06/15 06:17:37;;;;;;;1.30;1.02;;;17.90;95.60;;;;;;5058259;28;20052;-79
2023/06/15 06:20:04;;;;;;;1.63;1.52;;;18.00;95.80;;;;;;5062773;28;20044;-79
2023/06/15 06:22:30;;;;;;;1.05;1.05;;;18.10;95.40;;;;;;5050969;28;20033;-79
2023/06/15 06:24:56;;;;;;;0.95;0.95;;;18.20;95.00;;;;;;5067531;28;20045;-78
2023/06/15 06:27:21;;;;;;;0.90;0.90;;;18.30;95.30;;;;;;5060257;28;20122;-79
2023/06/15 06:29:48;;;;;;;4.05;1.35;;;18.50;94.40;;;;;;5060865;28;20578;-79
2023/06/15 06:32:15;;;;;;;0.70;0.70;;;18.60;94.10;;;;;;5066776;28;20048;-79
2023/06/15 06:37:58;;;;;;;0.47;0.47;;;18.90;93.60;;;;;;5063321;28;19930;-79
2023/06/15 06:40:25;;;;;;;0.60;0.60;;;19.20;93.10;;;;;;5060148;28;20429;-80
2023/06/15 06:42:51;;;;;;;0.83;0.83;;;19.50;92.40;;;;;;5062273;28;20152;-80
2023/06/15 06:45:17;;;;;;;1.10;1.02;;;19.80;91.80;;;;;;5067841;28;20123;-81
2023/06/15 06:47:42;;;;;;;0.55;0.55;;;20.00;90.50;;;;;;5054308;28;20431;-79
2023/06/15 06:50:08;;;;;;;0.68;0.68;;;20.10;91.10;;;;;;5067726;28;20037;-80
2023/06/15 06:52:34;;;;;;;0.57;0.55;;;20.40;90.70;;;;;;5045842;28;20049;-79
2023/06/15 06:55:00;;;;;;;1.10;1.00;;;20.60;90.00;;;;;;5067144;28;20045;-78
2023/06/15 06:57:25;;;;;;;0.50;0.50;;;20.80;90.20;;;;;;5060642;28;20048;-78
2023/06/15 06:59:51;;;;;;;0.55;0.55;;;21.20;88.90;;;;;;5066991;28;20044;-77
2023/06/15 07:02:16;;;;;;;1.17;0.88;;;21.40;87.10;;;;;;5063581;28;20041;-78
2023/06/15 07:04:42;;;;;;;0.60;0.60;;;21.70;87.80;;;;;;5066822;28;20112;-79
2023/06/15 07:07:08;;;;;;;0.40;0.40;;;22.00;85.00;;;;;;5067035;28;20147;-79
2023/06/15 07:09:35;;;;;;;0.65;0.65;;;22.20;82.20;;;;;;5062437;28;20048;-79
2023/06/15 07:12:00;;;;;;;0.50;0.50;;;22.30;84.20;;;;;;5047817;28;20088;-79
2023/06/15 07:14:26;;;;;;;0.38;0.38;;;22.60;83.00;;;;;;5047756;28;20124;-79
2023/06/15 07:16:52;;;;;;;0.30;0.30;;;22.90;83.40;;;;;;5058239;28;20059;-79
2023/06/15 07:19:17;;;;;;;0.57;0.57;;;23.10;83.10;;;;;;5059844;28;20564;-79
2023/06/15 07:21:43;;;;;;;1.15;1.05;;;23.30;79.40;;;;;;5049772;28;20063;-80
2023/06/15 07:24:09;;;;;;;0.93;0.68;;;23.50;78.10;;;;;;5048831;28;20036;-79
2023/06/15 07:26:34;;;;;;;0.38;0.38;;;23.60;78.00;;;;;;5048604;28;20041;-79
2023/06/15 07:29:00;;;;;;;3.92;0.50;;;23.90;76.60;;;;;;5052034;28;20138;-80
2023/06/15 07:31:26;;;;;;;0.75;0.75;;;24.00;74.80;;;;;;5052951;28;20076;-79
2023/06/15 07:33:53;;;;;;;1.42;0.50;;;24.00;75.90;;;;;;5058872;28;20075;-82
2023/06/15 07:36:19;;;;;;;;;;;24.10;75.80;;;;;;5048239;28;20048;-77
2023/06/15 07:38:45;;;;;;;0.60;0.50;;;24.20;75.50;;;;;;5051220;28;19928;-81
2023/06/15 07:41:11;;;;;;;1.10;0.82;;;24.40;76.40;;;;;;5054773;28;21316;-79
2023/06/15 07:43:37;;;;;;;1.80;1.02;;;24.50;75.70;;;;;;5056451;28;20113;-78
2023/06/15 07:46:02;;;;;;;0.75;0.75;;;24.70;74.10;;;;;;5053862;28;20166;-82
2023/06/15 07:48:28;;;;;;;0.40;0.40;;;24.90;72.80;;;;;;5057876;28;20098;-80
2023/06/15 07:50:55;;;;;;;0.77;0.77;;;25.10;71.80;;;;;;5055612;28;20077;-79
2023/06/15 07:53:20;;;;;;;0.60;0.60;;;25.20;71.00;;;;;;5054914;28;20045;-79
2023/06/15 07:55:47;;;;;;;0.30;0.30;;;25.30;69.90;;;;;;5052592;28;20040;-79
2023/06/15 07:58:13;;;;;;;0.40;0.40;;;25.40;70.60;;;;;;5049531;28;20052;-77
2023/06/15 08:00:38;;;;;;;1.45;0.70;;;25.50;69.90;;;;;;5030727;28;20033;-81
2023/06/15 08:03:04;;;;;;;0.60;0.60;;;25.60;69.00;;;;;;5050400;28;20045;-79
2023/06/15 08:05:29;;;;;;;0.52;0.40;;;25.60;67.30;;;;;;5058182;28;20029;-79
2023/06/15 08:07:55;;;;;;;0.40;0.40;;;25.70;67.90;;;;;;5057501;28;20098;-79
2023/06/15 08:10:21;;;;;;;1.00;1.00;;;25.90;67.40;;;;;;5051499;28;20044;-79
2023/06/15 08:12:47;;;;;;;1.13;1.13;;;26.00;66.70;;;;;;5052030;28;20055;-80
2023/06/15 08:15:12;;;;;;;1.30;1.15;;;26.00;67.80;;;;;;5052715;28;20028;-80
2023/06/15 08:17:38;;;;;;;0.90;0.90;;;26.00;65.50;;;;;;5060519;28;20091;-80
2023/06/15 08:20:09;;;;;;;0.93;0.93;;;26.00;65.10;;;;;;5052461;28;20452;-80
2023/06/15 08:22:35;;;;;;;0.75;0.75;;;25.90;63.70;;;;;;5060573;28;20090;-81
2023/06/15 08:25:02;;;;;;;1.23;1.23;;;25.90;64.50;;;;;;5052979;28;20037;-84
2023/06/15 08:27:27;;;;;;;1.00;1.00;;;26.00;62.30;;;;;;5050466;28;20057;-81
2023/06/15 08:29:54;;;;;;;1.65;1.55;;;25.90;62.30;;;;;;5053173;28;20072;-80
2023/06/15 08:32:20;;;;;;;0.93;0.93;;;25.90;63.60;;;;;;5050161;28;20149;-79
2023/06/15 08:34:45;;;;;;;0.65;0.55;;;26.00;63.70;;;;;;5053156;28;20044;-78
2023/06/15 08:37:12;;;;;;;27.95;2.60;;;26.10;61.80;;;;;;5051034;28;20110;-78
2023/06/15 08:39:41;;;;;;;0.95;0.95;;;26.10;61.20;;;;;;5051604;28;20048;-78
2023/06/15 08:42:07;;;;;;;1.52;1.42;;;26.10;56.70;;;;;;5051911;28;20048;-81
2023/06/15 08:44:37;;;;;;;0.98;0.95;;;25.90;59.60;;;;;;5051652;28;20045;-79
2023/06/15 08:47:03;;;;;;;2.10;2.00;;;25.90;61.20;;;;;;5061281;28;20059;-79
2023/06/15 08:49:32;;;;;;;0.95;0.93;;;26.00;58.80;;;;;;5051076;28;20098;-83
2023/06/15 08:51:59;;;;;;;0.90;0.90;;;26.00;60.60;;;;;;5051596;28;20093;-81
2023/06/15 08:54:28;;;;;;;1.25;1.15;;;26.00;58.90;;;;;;5052392;28;20059;-84
2023/06/15 08:56:55;;;;;;;0.73;0.73;;;26.10;60.00;;;;;;5049005;28;20510;-81
2023/06/15 08:59:23;;;;;;;0.70;0.70;;;26.10;56.50;;;;;;5037027;28;20605;-81
2023/06/15 09:01:53;;;;;;;1.27;1.20;;;26.10;59.90;;;;;;5052897;28;20054;-83
2023/06/15 09:04:18;;;;;;;3.58;2.42;;;26.20;60.10;;;;;;5050818;28;20663;-83
2023/06/15 09:06:44;;;;;;;1.20;1.15;;;26.10;58.30;;;;;;5053280;28;20040;-82
2023/06/15 09:09:12;;;;;;;1.40;1.38;;;26.10;58.50;;;;;;5052328;28;20048;-85
2023/06/15 09:11:46;;;;;;;2.17;1.20;;;26.30;59.30;;;;;;5053733;28;20451;-82
2023/06/15 09:14:11;;;;;;;1.75;1.65;;;26.40;58.30;;;;;;5052047;28;20041;-83
2023/06/15 09:16:39;;;;;;;0.43;0.43;;;26.60;57.70;;;;;;5055439;28;20098;-84
2023/06/15 09:19:13;;;;;;;1.60;0.93;;;26.80;58.50;;;;;;5053607;28;20493;-83
2023/06/15 09:21:49;;;;;;;0.40;0.40;;;26.90;58.60;;;;;;5060052;28;20049;-82
2023/06/15 09:24:16;;;;;;;1.33;1.30;;;27.00;57.20;;;;;;5051144;28;20052;-83
2023/06/15 09:26:44;;;;;;;0.77;0.77;;;27.00;55.40;;;;;;5051472;28;20064;-82
2023/06/15 09:29:11;;;;;;;2.25;1.80;;;27.10;56.80;;;;;;5053388;28;20057;-83
2023/06/15 09:31:38;;;;;;;0.98;0.93;;;27.10;58.00;;;;;;5050066;28;20679;-83
2023/06/15 09:34:06;;;;;;;1.15;1.08;;;27.20;57.40;;;;;;5041398;28;20036;-82
2023/06/15 09:36:38;;;;;;;1.42;1.02;;;27.00;54.30;;;;;;5048972;28;20537;-84
2023/06/15 09:39:05;;;;;;;3.55;1.67;;;27.00;56.30;;;;;;5052676;28;20049;-84
2023/06/15 09:41:34;;;;;;;2.05;1.92;;;27.10;54.20;;;;;;5050324;28;20040;-83
2023/06/15 09:44:04;;;;;;;0.47;0.47;;;27.40;54.30;;;;;;5051941;28;20045;-82
2023/06/15 09:46:31;;;;;;;1.30;1.20;;;27.70;53.60;;;;;;5050437;28;20045;-84
2023/06/15 09:48:57;;;;;;;1.13;1.00;;;27.90;53.30;;;;;;5052247;28;20080;-83
2023/06/15 09:51:27;;;;;;;1.17;1.17;;;27.90;52.20;;;;;;5051678;28;20055;-83
2023/06/15 09:53:54;;;;;;;0.80;0.80;;;27.90;54.90;;;;;;5049064;28;20063;-83
2023/06/15 09:56:23;;;;;;;10.20;3.10;;;27.80;53.20;;;;;;5048766;28;20048;-83
2023/06/15 09:58:49;;;;;;;1.00;1.00;;;27.90;53.40;;;;;;5053060;28;20045;-82
2023/06/15 10:01:18;;;;;;;2.22;1.88;;;28.00;52.50;;;;;;5060181;28;20529;-82
2023/06/15 10:03:46;;;;;;;3.03;1.88;;;27.70;52.80;;;;;;5051813;28;20040;-82
2023/06/15 10:06:16;;;;;;;2.22;2.05;;;27.70;53.30;;;;;;5051943;28;20053;-81
2023/06/15 10:08:43;;;;;;;0.60;0.60;;;27.80;53.70;;;;;;5050499;28;20073;-81
2023/06/15 10:11:09;;;;;;;0.98;0.98;;;27.80;52.70;;;;;;5051073;28;20189;-82
2023/06/15 10:13:48;;;;;;;0.60;0.60;;;28.00;52.00;;;;;;5052957;28;20052;-81
2023/06/15 10:16:16;;;;;;;0.77;0.77;;;28.10;52.20;;;;;;5055180;28;20052;-83
2023/06/15 10:18:44;;;;;;;0.90;0.90;;;28.20;50.50;;;;;;5055113;28;21415;-83
2023/06/15 10:21:15;;;;;;;0.57;0.57;;;28.50;51.40;;;;;;5055681;28;20049;-83
2023/06/15 10:23:43;;;;;;;0.80;0.80;;;28.80;51.00;;;;;;5066137;28;20485;-82
2023/06/15 10:26:12;;;;;;;0.95;0.93;;;28.90;51.20;;;;;;5061517;28;20057;-82
2023/06/15 10:28:46;;;;;;;0.63;0.63;;;29.20;51.70;;;;;;5060638;28;20132;-82
2023/06/15 10:31:41;;;;;;;1.20;0.93;;;29.00;50.60;;;;;;5065886;28;20063;-83
2023/06/15 10:34:26;;;;;;;1.35;1.30;;;29.20;49.10;;;;;;5063043;28;20052;-82
2023/06/15 10:37:03;;;;;;;1.08;1.08;;;29.40;49.30;;;;;;5063228;28;20060;-82
2023/06/15 10:39:38;;;;;;;2.38;2.28;;;29.30;49.50;;;;;;5064458;28;20068;-82
2023/06/15 10:42:08;;;;;;;1.75;0.80;;;29.10;50.10;;;;;;5065499;28;20071;-82
2023/06/15 10:44:34;;;;;;;1.80;1.30;;;29.30;50.20;;;;;;5057655;28;20041;-83
2023/06/15 10:47:12;;;;;;;0.60;0.60;;;29.60;48.30;;;;;;5053601;28;20045;-83
2023/06/15 10:49:51;;;;;;;1.77;1.67;;;29.70;48.30;;;;;;5062394;28;20045;-83
2023/06/15 10:52:35;;;;;;;2.05;1.33;;;29.80;47.50;;;;;;5052989;28;20079;-82
2023/06/15 10:55:09;;;;;;;0.75;0.75;;;29.70;48.70;;;;;;5061252;28;20502;-82
2023/06/15 10:57:35;;;;;;;1.40;1.30;;;29.80;49.10;;;;;;5050371;28;20037;-84
2023/06/15 11:00:04;;;;;;;0.50;0.50;;;29.90;48.40;;;;;;5065757;28;20037;-82
2023/06/15 11:02:33;;;;;;;0.47;0.47;;;29.70;46.70;;;;;;5060773;28;20055;-83
2023/06/15 11:05:09;;;;;;;6.32;0.88;;;29.60;48.30;;;;;;5064143;28;20036;-81
2023/06/15 11:07:39;;;;;;;1.10;1.10;;;29.40;46.10;;;;;;5063907;28;20056;-84
2023/06/15 11:10:37;;;;;;;1.45;1.33;;;29.10;47.30;;;;;;5062805;28;20044;-84
2023/06/15 11:13:04;;;;;;;2.22;2.00;;;29.00;48.10;;;;;;5067453;28;20048;-83
2023/06/15 11:15:37;;;;;;;1.83;0.93;;;28.90;47.70;;;;;;5064429;28;20089;-83
2023/06/15 11:18:13;;;;;;;0.93;0.93;;;29.00;47.70;;;;;;5061513;28;20049;-82
2023/06/15 11:20:39;;;;;;;1.23;1.17;;;29.30;46.00;;;;;;5057340;28;20629;-83
2023/06/15 11:23:10;;;;;;;0.60;0.60;;;29.40;46.90;;;;;;5056703;28;20494;-83
2023/06/15 11:25:37;;;;;;;0.82;0.82;;;29.50;45.40;;;;;;5058845;28;20048;-83
2023/06/15 11:28:03;;;;;;;1.33;1.23;;;29.50;45.40;;;;;;5060082;28;20301;-83
2023/06/15 11:30:29;;;;;;;0.90;0.90;;;29.30;45.90;;;;;;5067549;28;20123;-83
2023/06/15 11:32:55;;;;;;;2.75;1.35;;;29.20;45.80;;;;;;5061928;28;20032;-82
2023/06/15 11:35:21;;;;;;;1.02;1.02;;;29.30;46.40;;;;;;5056674;28;20460;-81
2023/06/15 11:37:47;;;;;;;2.05;1.73;;;29.40;45.30;;;;;;5062197;28;20048;-81
2023/06/15 11:40:16;;;;;;;0.47;0.47;;;29.50;46.90;;;;;;5063320;28;20807;-81
2023/06/15 11:42:42;;;;;;;0.85;0.85;;;29.60;45.80;;;;;;5062319;28;20047;-80
2023/06/15 11:45:18;;;;;;;4.38;1.13;;;30.00;46.60;;;;;;5069297;28;20056;-81
2023/06/15 11:47:45;;;;;;;0.68;0.68;;;30.30;45.20;;;;;;5053402;28;20076;-81
2023/06/15 11:50:11;;;;;;;0.60;0.60;;;30.50;45.60;;;;;;5061274;28;20041;-81
2023/06/15 11:52:43;;;;;;;1.10;1.00;;;30.60;45.30;;;;;;5071651;28;20051;-81
2023/06/15 11:55:13;;;;;;;1.08;1.05;;;30.50;44.40;;;;;;5066440;28;20120;-83
2023/06/15 11:57:41;;;;;;;1.50;1.40;;;30.40;43.10;;;;;;5066656;28;20041;-81
2023/06/15 12:00:09;;;;;;;1.25;1.13;;;30.30;43.70;;;;;;5048188;28;20075;-82
2023/06/15 12:02:35;;;;;;;0.40;0.40;;;30.30;43.50;;;;;;5067246;28;20068;-85
2023/06/15 12:05:02;;;;;;;0.65;0.55;;;30.30;44.60;;;;;;5062239;28;20439;-81
2023/06/15 12:07:32;;;;;;;;;;;30.30;44.80;;;;;;5064265;28;20048;-82
2023/06/15 12:09:59;;;;;;;0.43;0.43;;;30.20;43.40;;;;;;5064500;28;19957;-83
2023/06/15 12:12:32;;;;;;;0.98;0.98;;;30.20;45.00;;;;;;5058878;28;20423;-81
2023/06/15 12:15:03;;;;;;;0.52;0.52;;;30.00;43.70;;;;;;5069342;28;20068;-82
2023/06/15 12:17:31;;;;;;;0.50;0.50;;;29.80;41.90;;;;;;5068228;28;20037;-81
2023/06/15 12:20:11;;;;;;;0.40;0.40;;;29.80;41.90;;;;;;5068093;28;20044;-81
2023/06/15 12:22:48;;;;;;;0.80;0.80;;;30.00;42.80;;;;;;5067315;28;20599;-84
2023/06/15 12:25:14;;;;;;;2.42;2.22;;;29.90;43.70;;;;;;5053674;28;20037;-81
2023/06/15 12:27:51;;;;;;;1.10;1.10;;;29.40;43.60;;;;;;5064474;28;20675;-82
2023/06/15 12:30:18;;;;;;;1.92;1.77;;;29.20;44.00;;;;;;5053909;28;20416;-80
2023/06/15 12:32:46;;;;;;;0.82;0.82;;;29.30;42.90;;;;;;5061750;28;20044;-83
2023/06/15 12:35:37;;;;;;;0.80;0.80;;;29.40;43.90;;;;;;5057466;28;20047;-82
2023/06/15 12:38:06;;;;;;;1.05;1.05;;;29.50;44.10;;;;;;5063781;28;20189;-83
2023/06/15 12:40:33;;;;;;;1.42;1.33;;;29.50;42.50;;;;;;5047444;28;20498;-81
2023/06/15 12:42:59;;;;;;;;;;;29.30;43.80;;;;;;5069487;28;20091;-82
2023/06/15 12:45:25;;;;;;;0.70;0.70;;;29.30;43.70;;;;;;5067802;28;19920;-81
2023/06/15 12:47:51;;;;;;;1.52;1.42;;;29.50;43.60;;;;;;5064827;28;20047;-81
2023/06/15 12:50:17;;;;;;;1.42;1.27;;;29.60;42.30;;;;;;5061290;28;20044;-82
2023/06/15 12:52:42;;;;;;;0.75;0.75;;;29.80;42.80;;;;;;5068438;28;20037;-82